createdAt,value
2019-01-22T00:01:17.778Z,77713.64
2019-01-22T00:03:43.708Z,77709.63
2019-01-22T00:06:09.620Z,77706.63
2019-01-22T00:08:35.622Z,77711.64
2019-01-22T00:11:01.520Z,77717.64
2019-01-22T00:13:27.419Z,77716.64
2019-01-22T00:15:53.732Z,77716.64
2019-01-22T00:18:22.641Z,77710.64
2019-01-22T00:20:51.776Z,77713.64
2019-01-22T00:23:18.091Z,77717.64
2019-01-22T00:25:43.989Z,77722.65
2019-01-22T00:28:09.894Z,77715.64
2019-01-22T00:30:35.785Z,77708.63
2019-01-22T00:33:01.686Z,77703.63
2019-01-22T00:35:27.577Z,77700.63
2019-01-22T00:37:53.517Z,77695.63
2019-01-22T00:40:19.466Z,77714.64
2019-01-22T00:42:45.359Z,77707.63
2019-01-22T00:45:14.430Z,77696.63
2019-01-22T00:47:40.337Z,77697.63
2019-01-22T00:50:07.832Z,77693.62
2019-01-22T00:52:33.763Z,77689.61
2019-01-22T00:55:00.176Z,77704.63
2019-01-22T00:57:26.485Z,77695.63
2019-01-22T00:59:53.257Z,77691.62
2019-01-22T01:02:19.632Z,77686.61
2019-01-22T01:04:45.538Z,77690.61
2019-01-22T01:07:11.813Z,77694.62
2019-01-22T01:09:40.373Z,77701.63
2019-01-22T01:12:09.027Z,77700.63
2019-01-22T01:14:35.331Z,77696.63
2019-01-22T01:17:04.016Z,77691.62
2019-01-22T01:19:32.976Z,77683.61
2019-01-22T01:22:01.912Z,77679.60
2019-01-22T01:24:31.181Z,77677.60
2019-01-22T01:26:59.923Z,77678.60
2019-01-22T01:29:28.976Z,77663.59
2019-01-22T01:31:54.913Z,77663.59
2019-01-22T01:34:23.360Z,77659.58
2019-01-22T01:36:49.301Z,77660.58
2019-01-22T01:39:15.195Z,77669.59
2019-01-22T01:41:41.155Z,77675.59
2019-01-22T01:44:07.048Z,77664.59
2019-01-22T01:46:33.651Z,77659.58
2019-01-22T01:48:59.562Z,77648.57
2019-01-22T01:51:25.844Z,77649.57
2019-01-22T01:53:51.732Z,77648.57
2019-01-22T01:56:17.629Z,77652.58
2019-01-22T01:58:43.890Z,77651.58
2019-01-22T02:01:09.794Z,77648.57
2019-01-22T02:03:35.698Z,77642.56
2019-01-22T02:06:01.592Z,77644.56
2019-01-22T02:08:27.493Z,77636.56
2019-01-22T02:10:53.398Z,77645.56
2019-01-22T02:13:22.379Z,77639.56
2019-01-22T02:15:59.520Z,77636.56
2019-01-22T02:18:37.220Z,77635.55
2019-01-22T02:21:11.197Z,77634.55
2019-01-22T02:23:39.008Z,77621.55
2019-01-22T02:26:23.692Z,77627.55
2019-01-22T02:28:57.493Z,77622.55
2019-01-22T02:31:34.583Z,77615.53
2019-01-22T02:34:08.368Z,77607.53
2019-01-22T02:36:53.283Z,77599.52
2019-01-22T02:39:29.491Z,77597.52
2019-01-22T02:41:57.299Z,77603.52
2019-01-22T02:44:25.119Z,77603.52
2019-01-22T02:47:02.147Z,77600.52
2019-01-22T02:49:39.482Z,77600.52
2019-01-22T02:52:07.282Z,77593.52
2019-01-22T02:54:38.066Z,77594.52
2019-01-22T02:57:06.268Z,77599.52
2019-01-22T02:59:40.606Z,77599.52
2019-01-22T03:02:17.411Z,77593.52
2019-01-22T03:04:45.210Z,77597.52
2019-01-22T03:07:19.123Z,77591.52
2019-01-22T03:09:46.917Z,77592.52
2019-01-22T03:12:24.124Z,77607.53
2019-01-22T03:15:10.345Z,77603.52
2019-01-22T03:17:38.187Z,77595.52
2019-01-22T03:20:08.995Z,77595.52
2019-01-22T03:22:42.619Z,77590.52
2019-01-22T03:25:13.428Z,77593.52
2019-01-22T03:27:50.269Z,77598.52
2019-01-22T03:30:24.060Z,77591.52
2019-01-22T03:33:00.956Z,77588.51
2019-01-22T03:35:29.123Z,77598.52
2019-01-22T03:37:56.920Z,77605.53
2019-01-22T03:40:24.733Z,77595.52
2019-01-22T03:43:01.413Z,77587.51
2019-01-22T03:45:35.451Z,77581.50
2019-01-22T03:48:06.395Z,77573.49
2019-01-22T03:50:54.259Z,77567.48
2019-01-22T03:53:22.054Z,77564.48
2019-01-22T03:55:59.262Z,77570.48
2019-01-22T03:58:25.205Z,77570.48
2019-01-22T04:00:55.184Z,77563.48
2019-01-22T04:03:21.844Z,77570.48
2019-01-22T04:05:52.744Z,77566.48
2019-01-22T04:08:18.990Z,77572.49
2019-01-22T04:10:48.905Z,77575.49
2019-01-22T04:13:15.154Z,77581.50
2019-01-22T04:15:44.064Z,77575.49
2019-01-22T04:18:13.007Z,77567.48
2019-01-22T04:20:41.649Z,77568.48
2019-01-22T04:23:07.558Z,77571.48
2019-01-22T04:25:37.666Z,77577.50
2019-01-22T04:28:05.495Z,77574.49
2019-01-22T04:30:36.502Z,77571.48
2019-01-22T04:33:07.866Z,77563.48
2019-01-22T04:35:44.985Z,77561.48
2019-01-22T04:38:22.120Z,77561.48
2019-01-22T04:40:49.915Z,77561.48
2019-01-22T04:43:18.074Z,77571.48
2019-01-22T04:45:48.904Z,77560.48
2019-01-22T04:48:17.070Z,77556.48
2019-01-22T04:50:53.167Z,77557.48
2019-01-22T04:53:23.919Z,77549.47
2019-01-22T04:55:57.770Z,77553.47
2019-01-22T04:58:25.908Z,77570.48
2019-01-22T05:00:56.569Z,77566.48
2019-01-22T05:03:24.383Z,77564.48
2019-01-22T05:06:04.507Z,77572.49
2019-01-22T05:08:32.305Z,77570.48
2019-01-22T05:11:17.329Z,77562.48
2019-01-22T05:13:47.958Z,77550.47
2019-01-22T05:16:32.373Z,77549.47
2019-01-22T05:19:02.968Z,77547.47
2019-01-22T05:21:33.741Z,77544.47
2019-01-22T05:24:01.547Z,77547.47
2019-01-22T05:26:32.182Z,77540.46
2019-01-22T05:29:00.280Z,77540.46
2019-01-22T05:31:31.541Z,77540.46
2019-01-22T05:34:02.194Z,77540.46
2019-01-22T05:36:30.458Z,77533.45
2019-01-22T05:39:04.367Z,77531.45
2019-01-22T05:41:52.717Z,77537.45
2019-01-22T05:44:29.221Z,77531.45
2019-01-22T05:47:13.788Z,77534.45
2019-01-22T05:49:52.767Z,77535.45
2019-01-22T05:52:29.208Z,77532.45
2019-01-22T05:54:59.786Z,77525.45
2019-01-22T05:57:30.256Z,77518.44
2019-01-22T06:00:14.953Z,77505.42
2019-01-22T06:02:45.487Z,77503.42
2019-01-22T06:05:16.412Z,77511.43
2019-01-22T06:07:53.147Z,77519.44
2019-01-22T06:10:37.559Z,77519.44
2019-01-22T06:13:17.405Z,77519.44
2019-01-22T06:15:45.213Z,77516.44
2019-01-22T06:18:13.064Z,77511.43
2019-01-22T06:20:40.860Z,77511.43
2019-01-22T06:23:14.549Z,77509.43
2019-01-22T06:25:49.678Z,77522.44
2019-01-22T06:28:23.232Z,77507.42
2019-01-22T06:30:53.794Z,77513.44
2019-01-22T06:33:38.261Z,77505.42
2019-01-22T06:36:14.872Z,77508.43
2019-01-22T06:38:51.488Z,77512.44
2019-01-22T06:41:22.306Z,77506.42
2019-01-22T06:44:05.252Z,77516.44
2019-01-22T06:46:41.987Z,77502.42
2019-01-22T06:49:15.608Z,77507.42
2019-01-22T06:51:46.410Z,77503.42
2019-01-22T06:54:20.432Z,77516.44
2019-01-22T06:56:54.384Z,77499.42
2019-01-22T06:59:31.279Z,77491.41
2019-01-22T07:02:16.063Z,77502.42
2019-01-22T07:04:46.691Z,77495.41
2019-01-22T07:07:26.868Z,77499.42
2019-01-22T07:10:00.322Z,77511.43
2019-01-22T07:12:34.174Z,77515.44
2019-01-22T07:15:01.979Z,77526.45
2019-01-22T07:17:35.958Z,77533.45
2019-01-22T07:20:13.183Z,77530.45
2019-01-22T07:22:40.936Z,77525.45
2019-01-22T07:25:11.508Z,77533.45
2019-01-22T07:27:56.010Z,77543.46
2019-01-22T07:30:39.008Z,77544.47
2019-01-22T07:33:06.865Z,77557.48
2019-01-22T07:35:37.411Z,77557.48
2019-01-22T07:38:07.985Z,77559.48
2019-01-22T07:40:36.215Z,77545.47
2019-01-22T07:43:04.097Z,77527.45
2019-01-22T07:45:48.704Z,77536.45
2019-01-22T07:48:16.489Z,77536.45
2019-01-22T07:50:44.294Z,77548.47
2019-01-22T07:53:12.105Z,77519.44
2019-01-22T07:55:43.121Z,77511.43
2019-01-22T07:58:10.928Z,77512.44
2019-01-22T08:00:52.980Z,77504.42
2019-01-22T08:03:48.109Z,77504.42
2019-01-22T08:06:15.320Z,77500.42
2019-01-22T08:08:43.302Z,77505.42
2019-01-22T08:11:16.864Z,77501.42
2019-01-22T08:13:51.817Z,77500.42
2019-01-22T08:16:36.387Z,77485.41
2019-01-22T08:19:10.427Z,77493.41
2019-01-22T08:21:38.236Z,77485.41
2019-01-22T08:24:12.242Z,77487.41
2019-01-22T08:26:55.232Z,77485.41
2019-01-22T08:29:29.138Z,77472.39
2019-01-22T08:32:14.113Z,77482.41
2019-01-22T08:34:44.669Z,77470.39
2019-01-22T08:37:21.423Z,77468.39
2019-01-22T08:39:52.005Z,77470.39
2019-01-22T08:42:22.623Z,77463.38
2019-01-22T08:44:53.563Z,77463.38
2019-01-22T08:47:24.157Z,77458.38
2019-01-22T08:50:03.936Z,77461.38
2019-01-22T08:52:34.520Z,77463.38
2019-01-22T08:55:07.991Z,77465.38
2019-01-22T08:57:37.570Z,77473.39
2019-01-22T09:00:16.828Z,77476.39
2019-01-22T09:02:43.332Z,77482.41
2019-01-22T09:05:29.718Z,77475.39
2019-01-22T09:08:01.015Z,77480.40
2019-01-22T09:10:31.593Z,77469.39
2019-01-22T09:13:05.443Z,77473.39
2019-01-22T09:15:33.237Z,77465.38
2019-01-22T09:18:03.886Z,77465.38
2019-01-22T09:20:37.979Z,77460.38
2019-01-22T09:23:08.853Z,77461.38
2019-01-22T09:25:36.654Z,77460.38
2019-01-22T09:28:07.228Z,77465.38
2019-01-22T09:30:35.073Z,77457.38
2019-01-22T09:33:15.158Z,77457.38
2019-01-22T09:35:49.052Z,77449.37
2019-01-22T09:38:15.290Z,77453.38
2019-01-22T09:40:41.221Z,77454.38
2019-01-22T09:43:07.122Z,77457.38
2019-01-22T09:45:33.068Z,77460.38
2019-01-22T09:47:58.975Z,77441.36
2019-01-22T09:50:24.872Z,77437.36
2019-01-22T09:52:53.045Z,77431.35
2019-01-22T09:55:22.559Z,77434.36
2019-01-22T09:57:50.087Z,77429.35
2019-01-22T10:00:17.315Z,77426.34
2019-01-22T10:02:46.244Z,77432.35
2019-01-22T10:05:12.128Z,77431.35
2019-01-22T10:07:41.169Z,77433.36
2019-01-22T10:10:11.767Z,77423.34
2019-01-22T10:12:40.814Z,77421.34
2019-01-22T10:15:11.643Z,77433.36
2019-01-22T10:17:40.293Z,77433.36
2019-01-22T10:20:11.133Z,77427.34
2019-01-22T10:22:37.069Z,77425.34
2019-01-22T10:25:03.920Z,77417.34
2019-01-22T10:27:29.860Z,77406.33
2019-01-22T10:29:55.777Z,77405.33
2019-01-22T10:32:24.690Z,77401.33
2019-01-22T10:34:51.727Z,77399.32
2019-01-22T10:37:18.191Z,77402.33
2019-01-22T10:39:44.093Z,77403.33
2019-01-22T10:42:10.014Z,77397.32
2019-01-22T10:44:35.927Z,77387.31
2019-01-22T10:47:01.833Z,77377.30
2019-01-22T10:49:27.738Z,77382.30
2019-01-22T10:51:53.645Z,77381.30
2019-01-22T10:54:19.539Z,77382.30
2019-01-22T10:56:45.846Z,77390.31
2019-01-22T10:59:11.793Z,77388.31
2019-01-22T11:01:38.078Z,77385.31
2019-01-22T11:04:04.079Z,77371.30
2019-01-22T11:06:34.287Z,77375.30
2019-01-22T11:09:04.354Z,77377.30
2019-01-22T11:11:33.814Z,77373.30
2019-01-22T11:14:03.289Z,77369.30
2019-01-22T11:16:32.385Z,77354.28
2019-01-22T11:18:59.408Z,77359.28
2019-01-22T11:21:26.428Z,77396.32
2019-01-22T11:23:56.051Z,77381.30
2019-01-22T11:26:26.001Z,77368.29
2019-01-22T11:28:54.726Z,77360.28
2019-01-22T11:31:22.010Z,77346.27
2019-01-22T11:33:49.506Z,77345.27
2019-01-22T11:36:16.356Z,77334.26
2019-01-22T11:38:43.515Z,77328.25
2019-01-22T11:41:09.748Z,77359.28
2019-01-22T11:43:35.707Z,77347.27
2019-01-22T11:46:01.604Z,77329.25
2019-01-22T11:48:27.511Z,77328.25
2019-01-22T11:50:56.459Z,77323.25
2019-01-22T11:53:25.742Z,77317.24
2019-01-22T11:55:51.677Z,77323.25
2019-01-22T11:58:17.565Z,77315.24
2019-01-22T12:00:48.144Z,77313.23
2019-01-22T12:03:14.031Z,77308.23
2019-01-22T12:05:39.937Z,77301.23
2019-01-22T12:08:05.847Z,77301.23
2019-01-22T12:10:31.749Z,77299.23
2019-01-22T12:12:57.663Z,77295.22
2019-01-22T12:15:26.360Z,77294.22
2019-01-22T12:17:52.241Z,77302.23
2019-01-22T12:20:20.118Z,77334.26
2019-01-22T12:22:46.017Z,77373.30
2019-01-22T12:25:12.076Z,77319.25
2019-01-22T12:27:38.312Z,77294.22
2019-01-22T12:30:06.122Z,77294.22
2019-01-22T12:32:32.461Z,77303.23
2019-01-22T12:34:58.365Z,77281.20
2019-01-22T12:37:24.275Z,77283.21
2019-01-22T12:39:52.963Z,77287.22
2019-01-22T12:42:18.873Z,77287.22
2019-01-22T12:44:44.879Z,77287.22
2019-01-22T12:47:11.107Z,77278.20
2019-01-22T12:49:36.996Z,77285.21
2019-01-22T12:52:03.539Z,77277.20
2019-01-22T12:54:29.737Z,77271.20
2019-01-22T12:56:55.653Z,77269.20
2019-01-22T12:59:24.392Z,77299.23
2019-01-22T13:01:50.293Z,77311.23
2019-01-22T13:04:19.544Z,77269.20
2019-01-22T13:06:45.842Z,77220.16
2019-01-22T13:09:14.861Z,77227.16
2019-01-22T13:11:40.762Z,77251.18
2019-01-22T13:14:06.649Z,77222.16
2019-01-22T13:16:32.550Z,77209.14
2019-01-22T13:18:58.453Z,77194.13
2019-01-22T13:21:24.371Z,77188.13
2019-01-22T13:23:52.595Z,77196.13
2019-01-22T13:26:18.354Z,77184.13
2019-01-22T13:28:44.258Z,77159.09
2019-01-22T13:31:10.169Z,77182.12
2019-01-22T13:33:36.116Z,77208.14
2019-01-22T13:36:02.324Z,77210.14
2019-01-22T13:38:28.223Z,77212.15
2019-01-22T13:40:54.140Z,77209.14
2019-01-22T13:43:20.028Z,77214.15
2019-01-22T13:45:45.975Z,77209.14
2019-01-22T13:48:12.689Z,77209.14
2019-01-22T13:50:38.592Z,77203.14
2019-01-22T13:53:04.503Z,77207.14
2019-01-22T13:55:31.437Z,77197.13
2019-01-22T13:58:00.346Z,77201.14
2019-01-22T14:00:29.395Z,77194.13
2019-01-22T14:02:55.881Z,77185.13
2019-01-22T14:05:21.863Z,77187.13
2019-01-22T14:07:47.817Z,77199.14
2019-01-22T14:10:14.027Z,77182.12
2019-01-22T14:12:42.763Z,77189.13
2019-01-22T14:15:16.389Z,77190.13
2019-01-22T14:17:42.327Z,77190.13
2019-01-22T14:20:09.922Z,77192.13
2019-01-22T14:22:35.890Z,77185.13
2019-01-22T14:25:01.772Z,77184.13
2019-01-22T14:27:27.674Z,77185.13
2019-01-22T14:29:53.939Z,77164.10
2019-01-22T14:32:20.180Z,77169.11
2019-01-22T14:34:46.083Z,77165.10
2019-01-22T14:37:11.992Z,77169.11
2019-01-22T14:39:37.888Z,77155.09
2019-01-22T14:42:03.795Z,77155.09
2019-01-22T14:44:29.701Z,77159.09
2019-01-22T14:46:55.650Z,77139.08
2019-01-22T14:49:24.361Z,77137.08
2019-01-22T14:51:53.237Z,77135.08
2019-01-22T14:54:19.182Z,77133.08
2019-01-22T14:56:45.076Z,77143.08
2019-01-22T14:59:13.838Z,77135.08
2019-01-22T15:01:42.963Z,77134.08
2019-01-22T15:04:08.962Z,77127.07
2019-01-22T15:06:34.873Z,77133.08
2019-01-22T15:09:00.758Z,77128.07
2019-01-22T15:11:26.663Z,77121.06
2019-01-22T15:13:52.567Z,77119.06
2019-01-22T15:16:18.467Z,77116.06
2019-01-22T15:18:44.382Z,77126.07
2019-01-22T15:21:10.321Z,77120.06
2019-01-22T15:23:39.210Z,77117.06
2019-01-22T15:26:05.181Z,77113.06
2019-01-22T15:28:34.121Z,77118.06
2019-01-22T15:31:03.063Z,77111.05
2019-01-22T15:33:32.041Z,77108.05
2019-01-22T15:35:57.964Z,77103.05
2019-01-22T15:38:23.860Z,77097.05
2019-01-22T15:40:49.766Z,77091.03
2019-01-22T15:43:15.679Z,77092.04
2019-01-22T15:45:41.585Z,77094.05
2019-01-22T15:48:07.498Z,77088.03
2019-01-22T15:50:33.400Z,77092.04
2019-01-22T15:52:59.636Z,77095.05
2019-01-22T15:55:27.439Z,77093.04
2019-01-22T15:57:53.302Z,77091.03
2019-01-22T16:00:20.308Z,77089.03
2019-01-22T16:02:46.200Z,77085.03
2019-01-22T16:05:12.111Z,77091.03
2019-01-22T16:07:40.770Z,77094.05
2019-01-22T16:10:10.384Z,77094.05
2019-01-22T16:12:36.318Z,77083.03
2019-01-22T16:15:03.665Z,77080.03
2019-01-22T16:17:32.376Z,77084.03
2019-01-22T16:19:58.328Z,77084.03
2019-01-22T16:22:24.212Z,77080.03
2019-01-22T16:24:50.118Z,77086.03
2019-01-22T16:27:18.776Z,77083.03
2019-01-22T16:29:45.038Z,77076.02
2019-01-22T16:32:13.862Z,77077.02
2019-01-22T16:34:42.881Z,77075.02
2019-01-22T16:37:08.786Z,77064.02
2019-01-22T16:39:35.065Z,77066.02
2019-01-22T16:42:00.955Z,77057.01
2019-01-22T16:44:26.855Z,77061.02
2019-01-22T16:46:52.790Z,77062.02
2019-01-22T16:49:21.786Z,77068.02
2019-01-22T16:51:53.489Z,77050.00
2019-01-22T16:54:19.391Z,77055.01
2019-01-22T16:56:48.579Z,77054.00
2019-01-22T16:59:14.469Z,77047.00
2019-01-22T17:01:40.425Z,77043.00
2019-01-22T17:04:09.439Z,77044.00
2019-01-22T17:06:38.526Z,77045.00
2019-01-22T17:09:05.983Z,77045.00
2019-01-22T17:11:31.988Z,77039.99
2019-01-22T17:14:01.052Z,77041.00
2019-01-22T17:16:29.984Z,77045.00
2019-01-22T17:18:58.685Z,77046.00
2019-01-22T17:21:27.651Z,77049.00
2019-01-22T17:23:56.615Z,77043.00
2019-01-22T17:26:25.518Z,77044.00
2019-01-22T17:28:57.492Z,77055.01
2019-01-22T17:31:25.497Z,77047.00
2019-01-22T17:33:55.920Z,77048.00
2019-01-22T17:36:21.868Z,77037.99
2019-01-22T17:38:47.772Z,77049.00
2019-01-22T17:41:13.704Z,77034.98
2019-01-22T17:43:42.505Z,77034.98
2019-01-22T17:46:08.411Z,77029.98
2019-01-22T17:48:34.539Z,77032.98
2019-01-22T17:51:00.492Z,77033.98
2019-01-22T17:53:26.396Z,77024.98
2019-01-22T17:55:52.339Z,77030.98
2019-01-22T17:58:18.267Z,77034.98
2019-01-22T18:00:47.017Z,77028.98
2019-01-22T18:03:12.930Z,77032.98
2019-01-22T18:05:38.833Z,77030.98
2019-01-22T18:08:04.791Z,77030.98
2019-01-22T18:10:33.394Z,77030.98
2019-01-22T18:12:59.321Z,77023.98
2019-01-22T18:15:28.366Z,77028.98
2019-01-22T18:17:57.309Z,77020.98
2019-01-22T18:20:24.515Z,77022.98
2019-01-22T18:22:50.488Z,77023.98
2019-01-22T18:25:16.382Z,77016.98
2019-01-22T18:27:45.929Z,77021.98
2019-01-22T18:30:12.914Z,77024.98
2019-01-22T18:32:38.811Z,77016.98
2019-01-22T18:35:12.293Z,77027.98
2019-01-22T18:37:38.203Z,77019.98
2019-01-22T18:40:11.772Z,77016.98
2019-01-22T18:42:38.619Z,77015.97
2019-01-22T18:45:06.026Z,77016.98
2019-01-22T18:47:31.949Z,77014.97
2019-01-22T18:49:57.821Z,77019.98
2019-01-22T18:52:26.972Z,77016.98
2019-01-22T18:54:55.922Z,77018.98
2019-01-22T18:57:27.395Z,77010.97
2019-01-22T18:59:52.312Z,77010.97
2019-01-22T19:02:18.214Z,77013.97
2019-01-22T19:04:44.123Z,77018.98
2019-01-22T19:07:10.469Z,77012.97
2019-01-22T19:09:39.430Z,77052.00
2019-01-22T19:12:05.770Z,77034.98
2019-01-22T19:14:33.626Z,77029.98
2019-01-22T19:17:02.547Z,77019.98
2019-01-22T19:19:29.791Z,77020.98
2019-01-22T19:21:55.622Z,77018.98
2019-01-22T19:24:27.517Z,77030.98
2019-01-22T19:26:53.422Z,77028.98
2019-01-22T19:29:19.443Z,77038.99
2019-01-22T19:31:45.750Z,77019.98
2019-01-22T19:34:11.703Z,77020.98
2019-01-22T19:36:37.608Z,77024.98
2019-01-22T19:39:04.420Z,77021.98
2019-01-22T19:41:30.727Z,77020.98
2019-01-22T19:43:56.622Z,77042.00
2019-01-22T19:46:22.527Z,77041.00
2019-01-22T19:48:48.524Z,77030.98
2019-01-22T19:51:17.583Z,77030.98
2019-01-22T19:53:43.498Z,77034.98
2019-01-22T19:56:09.385Z,77034.98
2019-01-22T19:58:35.295Z,77043.00
2019-01-22T20:01:01.200Z,77046.00
2019-01-22T20:03:27.118Z,77042.00
2019-01-22T20:05:53.163Z,77042.00
2019-01-22T20:08:19.101Z,77036.99
2019-01-22T20:10:44.987Z,77038.99
2019-01-22T20:13:10.904Z,77034.98
2019-01-22T20:15:37.232Z,77032.98
2019-01-22T20:18:06.151Z,77035.99
2019-01-22T20:20:32.099Z,77022.98
2019-01-22T20:22:58.008Z,77022.98
2019-01-22T20:25:24.120Z,77021.98
2019-01-22T20:27:50.030Z,77019.98
2019-01-22T20:30:17.883Z,77017.98
2019-01-22T20:32:43.849Z,77013.97
2019-01-22T20:35:09.755Z,77014.97
2019-01-22T20:37:35.651Z,77012.97
2019-01-22T20:40:06.487Z,77011.97
2019-01-22T20:42:32.431Z,77008.97
2019-01-22T20:45:01.088Z,77005.97
2019-01-22T20:47:30.179Z,77014.97
2019-01-22T20:49:56.494Z,77007.97
2019-01-22T20:52:22.423Z,77007.97
2019-01-22T20:54:48.779Z,77014.97
2019-01-22T20:57:14.726Z,77006.97
2019-01-22T20:59:41.095Z,77005.97
2019-01-22T21:02:10.523Z,77014.97
2019-01-22T21:04:36.430Z,77013.97
2019-01-22T21:07:02.366Z,77008.97
2019-01-22T21:09:28.294Z,77005.97
2019-01-22T21:11:54.201Z,77003.97
2019-01-22T21:14:20.100Z,77005.97
2019-01-22T21:16:46.005Z,77002.97
2019-01-22T21:19:11.901Z,77003.97
2019-01-22T21:21:37.805Z,77002.97
2019-01-22T21:24:03.701Z,77006.97
2019-01-22T21:26:29.600Z,76994.95
2019-01-22T21:28:55.604Z,77007.97
2019-01-22T21:31:24.372Z,77004.97
2019-01-22T21:33:50.273Z,76998.96
2019-01-22T21:36:16.935Z,76984.95
2019-01-22T21:38:42.815Z,76990.95
2019-01-22T21:41:12.023Z,76987.95
2019-01-22T21:43:38.259Z,76985.95
2019-01-22T21:46:04.531Z,76982.95
2019-01-22T21:48:30.571Z,76978.94
2019-01-22T21:50:56.635Z,76979.94
2019-01-22T21:53:23.127Z,76991.95
2019-01-22T21:55:49.389Z,76997.96
2019-01-22T21:58:15.289Z,76998.96
2019-01-22T22:00:41.219Z,76993.95
2019-01-22T22:03:09.958Z,77003.97
2019-01-22T22:05:35.998Z,77008.97
2019-01-22T22:08:02.339Z,77013.97
2019-01-22T22:10:28.418Z,77006.97
2019-01-22T22:12:54.851Z,77009.97
2019-01-22T22:15:21.873Z,77004.97
2019-01-22T22:17:47.773Z,77003.97
2019-01-22T22:20:14.700Z,77006.97
2019-01-22T22:22:41.189Z,77003.97
2019-01-22T22:25:08.505Z,77004.97
2019-01-22T22:27:35.382Z,77016.98
2019-01-22T22:30:01.363Z,77012.97
2019-01-22T22:32:27.460Z,77014.97
2019-01-22T22:34:54.196Z,77018.98
2019-01-22T22:37:20.140Z,77022.98
2019-01-22T22:39:46.080Z,77016.98
2019-01-22T22:42:12.163Z,77014.97
2019-01-22T22:44:38.379Z,77010.97
2019-01-22T22:47:04.440Z,77014.97
2019-01-22T22:49:30.331Z,77030.98
2019-01-22T22:51:56.267Z,77030.98
2019-01-22T22:54:22.921Z,77028.98
2019-01-22T22:56:54.160Z,77020.98
2019-01-22T22:59:20.770Z,77026.98
2019-01-22T23:01:47.319Z,77019.98
2019-01-22T23:04:13.190Z,77033.98
2019-01-22T23:06:39.090Z,77020.98
2019-01-22T23:09:07.678Z,77026.98
2019-01-22T23:11:33.581Z,77022.98
2019-01-22T23:14:02.539Z,77018.98
2019-01-22T23:16:33.416Z,77016.98
2019-01-22T23:19:02.782Z,77021.98
2019-01-22T23:21:28.689Z,77009.97
2019-01-22T23:23:54.584Z,77011.97
2019-01-22T23:26:22.893Z,77010.97
2019-01-22T23:28:51.832Z,77004.97
2019-01-22T23:31:23.888Z,76999.96
2019-01-22T23:33:49.818Z,77016.98
2019-01-22T23:36:15.718Z,77010.97
2019-01-22T23:38:41.668Z,77014.97
2019-01-22T23:41:07.901Z,77006.97
2019-01-22T23:43:36.946Z,77014.97
2019-01-22T23:46:02.843Z,77000.96
2019-01-22T23:48:28.747Z,76991.95
2019-01-22T23:50:57.425Z,76982.95
2019-01-22T23:53:26.532Z,76981.95
2019-01-22T23:55:55.505Z,76982.95
2019-01-22T23:58:24.595Z,76972.94
